X  Sluiten METAR luchtvaart weer gegevens      EHGG Eelde Airport
Temperatuur
18°C Temperatuur
14°C Dauwpunt
78% Vochtigheid



Wind
19 KM/U
12 MPH
5 M/S
10 KTS



290°
WNW
Huidig weer

Grotendeels bewolkt Grotendeels bewolkt
Luchtdruk 1018.96 (hPa) - 30.09 (inHg)
Zicht 6 (mijl) - 9.7 (km)
Vliegveld
Vliegveld code EHGG

Locatie : Eelde Airport
Afstand: 90 (km)

Metar:
EHGG 171025Z AUTO 29010KT 230V340 9999 BKN019 OVC023 18/14 Q1019 NOSIG

Tijd: 17-07-2024 12:25 CEST